Time;durP1;ratioP1;P1;durP2;ratioP2;P2;SDS_P1;SDS_P2;PMS_P1;PMS_P2;Temp;Humidity;BMP_temperature;BMP_pressure;BME280_temperature;BME280_humidity;BME280_pressure;Samples;Min_cycle;Max_cycle;Signal;HPM_P1;HPM_P2
2022/11/07 00:01:15;;;;;;;63.20;59.50;;;;;;;14.39;68.50;101989.03;5014562;27;102328;-53
2022/11/07 00:03:44;;;;;;;61.63;58.13;;;;;;;14.39;68.54;101994.50;4972991;28;102138;-53
2022/11/07 00:06:11;;;;;;;60.97;57.47;;;;;;;14.37;68.42;101985.72;4925748;28;102209;-53
2022/11/07 00:08:37;;;;;;;60.50;57.15;;;;;;;14.39;68.11;101989.03;4916083;28;104037;-53
2022/11/07 00:11:04;;;;;;;58.90;55.53;;;;;;;14.41;68.04;101986.81;4897587;28;102104;-53
2022/11/07 00:13:36;;;;;;;58.42;55.13;;;;;;;14.42;68.13;101985.72;4898288;28;101890;-53
2022/11/07 00:16:05;;;;;;;57.97;54.72;;;;;;;14.39;68.56;101978.06;4904403;28;102671;-53
2022/11/07 00:18:33;;;;;;;56.38;53.00;;;;;;;14.38;68.37;101987.34;4897495;28;104068;-53
2022/11/07 00:21:05;;;;;;;61.95;58.33;;;;;;;14.39;67.98;101978.06;4902584;28;102018;-53
2022/11/07 00:23:39;;;;;;;61.55;58.15;;;;;;;14.40;68.26;101977.78;4905947;28;102360;-53
2022/11/07 00:26:09;;;;;;;63.67;60.08;;;;;;;14.39;68.38;101975.31;4898544;28;102433;-54
2022/11/07 00:28:40;;;;;;;57.15;53.95;;;;;;;14.41;68.23;101976.69;4896607;28;103857;-54
2022/11/07 00:31:12;;;;;;;55.00;51.90;;;;;;;14.40;68.56;101975.06;4908216;28;102273;-53
2022/11/07 00:33:39;;;;;;;59.55;56.13;;;;;;;14.39;68.07;101978.88;4910363;28;102208;-53
2022/11/07 00:36:15;;;;;;;59.65;56.35;;;;;;;14.37;68.24;101972.03;4897734;28;102178;-53
2022/11/07 00:38:44;;;;;;;54.47;51.38;;;;;;;14.37;68.10;101980.22;4900002;28;103978;-54
2022/11/07 00:41:12;;;;;;;59.35;56.05;;;;;;;14.36;68.27;101973.13;4897091;28;102435;-53
2022/11/07 00:43:44;;;;;;;58.80;55.47;;;;;;;14.37;68.47;101970.09;4897556;28;102244;-53
2022/11/07 00:46:13;;;;;;;55.67;52.60;;;;;;;14.39;68.47;101964.38;4906164;28;102326;-53
2022/11/07 00:48:40;;;;;;;57.17;54.05;;;;;;;14.39;68.36;101964.38;4913507;28;104299;-53
2022/11/07 00:51:07;;;;;;;57.70;54.45;;;;;;;14.40;68.08;101968.75;4899112;28;102337;-53
2022/11/07 00:53:34;;;;;;;56.92;53.75;;;;;;;14.39;68.53;101961.63;4898052;28;102425;-53
2022/11/07 00:56:01;;;;;;;54.78;51.65;;;;;;;14.40;68.20;101969.56;4899853;28;102582;-53
2022/11/07 00:58:27;;;;;;;58.22;55.03;;;;;;;14.38;68.36;101959.97;4906192;28;104096;-53
2022/11/07 01:00:59;;;;;;;56.00;52.80;;;;;;;14.38;68.19;101968.19;4907835;28;102435;-53
2022/11/07 01:06:10;;;;;;;61.53;58.17;;;;;;;14.33;68.43;101957.22;4901369;28;102115;-53
2022/11/07 01:08:37;;;;;;;60.20;56.80;;;;;;;14.33;68.36;101957.22;4911280;28;104017;-53
2022/11/07 01:11:05;;;;;;;54.03;51.03;;;;;;;14.33;68.61;101951.75;4915428;28;102181;-53
2022/11/07 01:13:33;;;;;;;57.72;54.58;;;;;;;14.33;68.43;101957.22;4899783;28;102511;-53
2022/11/07 01:16:01;;;;;;;53.25;50.15;;;;;;;14.33;68.24;101944.34;4905638;28;102727;-53
2022/11/07 01:18:28;;;;;;;59.60;56.30;;;;;;;14.35;68.54;101944.06;4895394;28;104070;-53
2022/11/07 01:20:54;;;;;;;55.65;52.60;;;;;;;14.35;68.06;101938.59;4898644;28;102435;-53
2022/11/07 01:23:21;;;;;;;54.22;51.13;;;;;;;14.36;68.28;101945.72;4908025;28;102288;-53
2022/11/07 01:25:48;;;;;;;54.58;51.58;;;;;;;14.38;67.92;101946.28;4915473;28;102432;-53
2022/11/07 01:28:14;;;;;;;54.55;51.45;;;;;;;14.37;68.43;101936.41;4910244;28;104528;-53
2022/11/07 01:30:43;;;;;;;55.97;52.88;;;;;;;14.37;68.54;101947.38;4912075;28;102416;-53
2022/11/07 01:33:11;;;;;;;57.45;54.28;;;;;;;14.37;67.98;101936.41;4903103;28;102237;-53
2022/11/07 01:35:39;;;;;;;52.80;49.80;;;;;;;14.39;68.21;101939.72;4902776;28;102459;-53
2022/11/07 01:38:06;;;;;;;55.72;52.53;;;;;;;14.35;68.69;101933.97;4895752;28;104053;-53
2022/11/07 01:41:19;;;;;;;62.50;59.10;;;;;;;14.33;68.35;101933.38;4903262;28;102530;-53
2022/11/07 01:43:40;;;;;;;63.63;60.15;;;;;;;14.34;68.38;101934.22;4895097;28;102406;-53
2022/11/07 01:46:07;;;;;;;62.65;59.25;;;;;;;14.38;68.38;101938.06;4915036;28;102210;-53
2022/11/07 01:48:35;;;;;;;60.97;57.67;;;;;;;14.38;68.45;101938.06;4906366;28;104132;-53
2022/11/07 01:51:05;;;;;;;58.28;55.08;;;;;;;14.39;68.41;101945.19;4898267;28;102149;-53
2022/11/07 01:53:33;;;;;;;57.95;54.85;;;;;;;14.39;68.30;101945.19;4899892;28;102260;-53
2022/11/07 01:56:00;;;;;;;57.60;54.43;;;;;;;14.39;68.56;101935.06;4896435;28;102222;-53
2022/11/07 01:58:27;;;;;;;60.97;57.70;;;;;;;14.40;68.49;101935.88;4897957;28;104160;-53
2022/11/07 02:00:55;;;;;;;58.13;54.90;;;;;;;14.39;68.37;101940.53;4899641;28;102676;-53
2022/11/07 02:03:22;;;;;;;60.83;57.45;;;;;;;14.42;68.26;101939.16;4898814;28;102509;-53
2022/11/07 02:05:54;;;;;;;60.53;57.22;;;;;;;14.39;68.30;101923.28;4901804;28;102227;-53
2022/11/07 02:08:23;;;;;;;55.42;52.38;;;;;;;14.41;68.59;101932.06;4903926;28;103891;-53
2022/11/07 02:10:52;;;;;;;58.80;55.70;;;;;;;14.39;68.45;101923.28;4902008;28;102522;-53
2022/11/07 02:13:24;;;;;;;;;;;;;;;14.41;68.22;101932.06;4903372;28;102400;-53
2022/11/07 02:15:50;;;;;;;66.65;62.85;;;;;;;14.42;68.69;101939.16;4904512;28;102388;-53
2022/11/07 02:18:18;;;;;;;63.50;59.97;;;;;;;14.42;68.52;101939.16;4903220;28;103977;-53
2022/11/07 02:20:45;;;;;;;66.30;62.63;;;;;;;14.41;68.53;101937.53;4905486;28;102548;-53
2022/11/07 02:23:19;;;;;;;61.58;58.22;;;;;;;14.43;68.39;101938.09;4904542;28;101955;-54
2022/11/07 02:25:47;;;;;;;60.20;56.90;;;;;;;14.42;68.65;101936.44;4900494;28;102176;-53
2022/11/07 02:28:15;;;;;;;65.35;61.80;;;;;;;14.42;68.67;101940.00;4894478;28;104037;-53
2022/11/07 02:30:42;;;;;;;60.28;56.90;;;;;;;14.43;68.53;101938.09;4899350;28;102051;-53
2022/11/07 02:33:18;;;;;;;56.78;53.45;;;;;;;14.43;68.85;101935.34;4907391;28;102408;-53
2022/11/07 02:35:46;;;;;;;67.72;63.83;;;;;;;14.42;68.76;101930.94;4901309;28;102398;-53
2022/11/07 02:38:19;;;;;;;61.42;58.00;;;;;;;14.42;68.40;101929.06;4913123;28;104030;-53
2022/11/07 02:40:50;;;;;;;62.28;58.72;;;;;;;14.41;68.56;101923.84;4912474;28;102025;-53
2022/11/07 02:43:19;;;;;;;69.18;65.35;;;;;;;14.40;68.85;101931.22;4897143;28;102608;-53
2022/11/07 02:45:48;;;;;;;66.57;63.03;;;;;;;14.41;68.74;101932.88;4908439;28;102374;-53
2022/11/07 02:48:15;;;;;;;63.58;60.10;;;;;;;14.41;68.58;101938.34;4909919;28;103915;-54
2022/11/07 02:50:42;;;;;;;64.65;61.10;;;;;;;14.42;68.74;101937.28;4912652;28;102401;-53
2022/11/07 02:53:08;;;;;;;59.05;55.42;;;;;;;14.41;68.79;101934.78;4911836;28;102142;-53
2022/11/07 02:55:35;;;;;;;62.05;58.63;;;;;;;14.41;68.93;101934.78;4896190;28;102394;-53
2022/11/07 02:58:04;;;;;;;61.30;57.80;;;;;;;14.40;68.84;101936.72;4898446;28;103906;-53
2022/11/07 03:00:30;;;;;;;71.32;67.28;;;;;;;14.39;68.67;101934.25;4894975;28;102141;-53
2022/11/07 03:02:57;;;;;;;63.47;60.03;;;;;;;14.39;68.69;101934.25;4903723;28;102354;-53
2022/11/07 03:05:23;;;;;;;64.43;60.85;;;;;;;14.39;68.88;101939.72;4910681;28;102355;-53
2022/11/07 03:07:51;;;;;;;56.80;53.60;;;;;;;14.40;68.72;101936.72;4906870;28;104087;-53
2022/11/07 03:10:17;;;;;;;58.10;54.85;;;;;;;14.41;68.83;101934.78;4904783;28;102056;-53
2022/11/07 03:12:45;;;;;;;65.60;61.90;;;;;;;14.39;68.92;101939.72;4903631;28;102038;-53
2022/11/07 03:15:14;;;;;;;64.18;60.58;;;;;;;14.38;68.54;101946.28;4911311;28;102168;-53
2022/11/07 03:17:41;;;;;;;62.40;58.75;;;;;;;14.38;68.48;101938.88;4894621;28;103961;-53
2022/11/07 03:20:09;;;;;;;59.38;56.03;;;;;;;14.39;68.57;101931.50;4913566;28;102145;-54
2022/11/07 03:22:35;;;;;;;57.40;54.22;;;;;;;14.38;68.93;101933.41;4911771;28;102369;-53
2022/11/07 03:25:02;;;;;;;58.40;55.10;;;;;;;14.38;68.69;101924.38;4900999;28;102168;-53
2022/11/07 03:27:29;;;;;;;61.70;58.28;;;;;;;14.39;68.54;101920.56;4898202;28;104094;-53
2022/11/07 03:29:55;;;;;;;63.78;60.17;;;;;;;14.37;68.80;101914.50;4903347;28;102450;-53
2022/11/07 03:32:23;;;;;;;62.90;59.38;;;;;;;14.37;68.82;101919.97;4909981;28;102309;-53
2022/11/07 03:34:50;;;;;;;60.95;57.58;;;;;;;14.36;68.74;101910.94;4913346;28;102164;-53
2022/11/07 03:37:16;;;;;;;62.72;58.97;;;;;;;14.37;69.10;101917.25;4896654;28;103877;-53
2022/11/07 03:39:43;;;;;;;64.18;60.65;;;;;;;14.37;68.93;101915.31;4906970;28;102535;-53
2022/11/07 03:42:09;;;;;;;65.22;61.63;;;;;;;14.38;68.70;101910.66;4904563;28;102187;-53
2022/11/07 03:44:36;;;;;;;67.45;63.70;;;;;;;14.37;68.65;101919.97;4909580;28;102264;-54
2022/11/07 03:47:02;;;;;;;61.97;58.55;;;;;;;14.38;68.55;101910.66;4905443;28;104106;-53
2022/11/07 03:49:31;;;;;;;67.35;63.60;;;;;;;14.37;69.26;101909.03;4908225;28;101950;-53
2022/11/07 03:51:57;;;;;;;64.55;60.95;;;;;;;14.37;68.62;101909.03;4896655;28;102232;-53
2022/11/07 03:54:24;;;;;;;64.03;60.40;;;;;;;14.37;68.94;101901.63;4908540;28;102354;-53
2022/11/07 03:56:51;;;;;;;62.15;58.63;;;;;;;14.36;68.91;101896.44;4906553;28;103933;-53
2022/11/07 03:59:18;;;;;;;61.55;58.17;;;;;;;14.37;68.93;101904.38;4905784;28;102457;-53
2022/11/07 04:01:45;;;;;;;62.92;59.33;;;;;;;14.37;69.10;101900.81;4900702;28;102002;-53
2022/11/07 04:04:12;;;;;;;63.85;60.25;;;;;;;14.36;68.88;101901.91;4899221;28;102680;-53
2022/11/07 04:06:40;;;;;;;59.85;56.38;;;;;;;14.39;68.54;101904.13;4898779;28;103928;-53
2022/11/07 04:09:06;;;;;;;68.93;65.22;;;;;;;14.37;68.49;101898.06;4897051;28;102719;-53
2022/11/07 04:17:20;;;;;;;67.53;63.80;;;;;;;14.36;68.59;101902.72;4899874;28;107757;-53
2022/11/07 04:19:49;;;;;;;74.40;70.22;;;;;;;14.36;68.81;101904.66;4910829;28;102771;-53
2022/11/07 04:22:18;;;;;;;63.17;59.55;;;;;;;14.36;68.74;101902.72;4903596;28;102356;-53
2022/11/07 04:24:46;;;;;;;72.40;68.45;;;;;;;14.36;68.45;101907.41;4915793;28;102537;-53
2022/11/07 04:29:58;;;;;;;69.75;65.93;;;;;;;14.34;68.59;101907.66;4907751;28;102661;-53
2022/11/07 04:32:25;;;;;;;62.72;59.10;;;;;;;14.36;68.38;101908.22;4903569;28;102397;-54
2022/11/07 04:34:51;;;;;;;63.58;59.97;;;;;;;14.36;68.75;101912.88;4899567;28;102180;-53
2022/11/07 04:37:19;;;;;;;61.08;57.63;;;;;;;14.35;68.48;101906.56;4903597;28;104002;-54
2022/11/07 04:39:46;;;;;;;63.33;59.53;;;;;;;14.36;68.46;101916.44;4915390;28;102346;-53
2022/11/07 04:42:13;;;;;;;68.95;64.97;;;;;;;14.36;68.41;101923.81;4908602;28;102141;-54
2022/11/07 04:44:40;;;;;;;61.45;57.95;;;;;;;14.36;68.51;101918.34;4911754;28;102220;-53
2022/11/07 04:47:07;;;;;;;63.17;59.47;;;;;;;14.36;68.58;101918.34;4898114;28;103980;-53
2022/11/07 04:49:34;;;;;;;65.90;62.17;;;;;;;14.36;68.89;101921.91;4896744;28;102356;-53
2022/11/07 04:52:00;;;;;;;63.60;59.88;;;;;;;14.36;68.42;101919.16;4896022;28;102138;-53
2022/11/07 04:54:28;;;;;;;67.03;63.13;;;;;;;14.36;68.61;101919.16;4905910;28;102608;-53
2022/11/07 04:56:55;;;;;;;68.63;64.80;;;;;;;14.36;68.58;101923.81;4904839;28;104105;-53
2022/11/07 04:59:21;;;;;;;67.22;63.25;;;;;;;14.36;68.65;101924.66;4904600;28;102292;-54
2022/11/07 05:01:47;;;;;;;67.32;63.47;;;;;;;14.36;68.81;101923.81;4902432;28;102336;-53
2022/11/07 05:04:14;;;;;;;69.97;66.07;;;;;;;14.36;68.86;101927.38;4909342;28;102209;-53
2022/11/07 05:06:41;;;;;;;66.18;62.15;;;;;;;14.37;68.85;101930.94;4911594;28;103934;-53
2022/11/07 05:09:08;;;;;;;64.97;61.15;;;;;;;14.36;68.53;101934.78;4900970;28;102182;-53
2022/11/07 05:11:36;;;;;;;67.43;63.63;;;;;;;14.35;68.79;101928.47;4915203;28;102651;-53
2022/11/07 05:14:03;;;;;;;67.45;63.50;;;;;;;14.35;68.72;101931.22;4904851;28;102344;-53
2022/11/07 05:16:32;;;;;;;64.13;60.42;;;;;;;14.36;68.55;101935.59;4899442;28;104268;-53
2022/11/07 05:18:59;;;;;;;61.83;58.30;;;;;;;14.37;68.59;101941.91;4900128;28;102315;-53
2022/11/07 05:21:25;;;;;;;66.10;62.30;;;;;;;14.37;68.65;101936.41;4906810;28;102299;-54
2022/11/07 05:23:52;;;;;;;64.40;60.63;;;;;;;14.36;68.73;101937.50;4899243;28;102593;-53
2022/11/07 05:26:18;;;;;;;65.53;61.75;;;;;;;14.36;68.83;101935.59;4895764;28;104040;-53
2022/11/07 05:28:46;;;;;;;65.80;61.97;;;;;;;14.38;68.32;101938.88;4899887;28;102352;-53
2022/11/07 05:31:15;;;;;;;64.45;60.72;;;;;;;14.38;68.63;101940.78;4895569;28;102121;-53
2022/11/07 05:33:41;;;;;;;65.13;61.38;;;;;;;14.36;68.57;101948.47;4900137;28;102562;-53
2022/11/07 05:36:13;;;;;;;62.53;58.92;;;;;;;14.36;68.80;101948.47;4898261;28;103981;-53
2022/11/07 05:38:41;;;;;;;69.85;65.93;;;;;;;14.36;68.72;101956.69;4910167;28;102292;-53
2022/11/07 05:41:08;;;;;;;68.57;64.57;;;;;;;14.36;68.58;101952.03;4902676;28;102293;-53
2022/11/07 05:43:35;;;;;;;65.82;62.10;;;;;;;14.35;69.10;101955.00;4912286;28;102336;-53
2022/11/07 05:46:04;;;;;;;68.22;64.28;;;;;;;14.35;68.95;101952.28;4903025;28;103860;-53
2022/11/07 05:48:31;;;;;;;68.50;64.57;;;;;;;14.36;68.55;101945.72;4913038;28;102223;-53
2022/11/07 05:50:58;;;;;;;70.07;66.07;;;;;;;14.35;68.76;101952.28;4910175;28;102546;-53
2022/11/07 05:53:25;;;;;;;67.03;63.08;;;;;;;14.32;68.75;101950.91;4907368;28;103152;-53
2022/11/07 05:55:52;;;;;;;65.30;61.35;;;;;;;14.36;68.57;101956.69;4905476;28;103950;-53
2022/11/07 05:58:19;;;;;;;64.40;60.70;;;;;;;14.36;68.80;101968.47;4898407;28;102180;-54
2022/11/07 06:00:46;;;;;;;69.00;64.85;;;;;;;14.36;68.43;101967.63;4902640;28;102772;-53
2022/11/07 06:03:15;;;;;;;65.15;61.45;;;;;;;14.35;69.00;101971.44;4906531;28;102470;-53
2022/11/07 06:05:43;;;;;;;63.90;60.20;;;;;;;14.34;68.96;101972.53;4903705;28;103931;-53
2022/11/07 06:08:11;;;;;;;62.95;59.33;;;;;;;14.33;68.92;101973.66;4904660;28;102183;-53
2022/11/07 06:10:39;;;;;;;65.18;61.28;;;;;;;14.34;68.77;101970.63;4904720;28;102376;-53
2022/11/07 06:13:07;;;;;;;64.07;60.47;;;;;;;14.37;68.68;101980.22;4905722;28;102446;-53
2022/11/07 06:15:36;;;;;;;66.00;62.15;;;;;;;14.35;68.67;101975.03;4899380;28;103953;-53
2022/11/07 06:18:05;;;;;;;65.03;61.17;;;;;;;14.35;68.59;101975.03;4899764;28;102302;-53
2022/11/07 06:20:34;;;;;;;63.50;59.88;;;;;;;14.34;68.46;101976.09;4908292;28;102062;-53
2022/11/07 06:23:01;;;;;;;;;;;;;;;14.33;68.66;101969.00;4900822;28;102326;-53
2022/11/07 06:25:28;;;;;;;67.88;64.03;;;;;;;14.33;68.81;101968.16;4912216;28;104491;-53
2022/11/07 06:27:58;;;;;;;67.22;63.53;;;;;;;14.33;68.58;101974.47;4896336;28;102119;-53
2022/11/07 06:30:25;;;;;;;66.97;63.05;;;;;;;14.34;68.60;101969.81;4901432;28;102762;-53
2022/11/07 06:32:53;;;;;;;68.22;64.32;;;;;;;14.33;68.85;101981.84;4912025;28;102218;-53
2022/11/07 06:35:19;;;;;;;64.80;61.20;;;;;;;14.33;68.46;101984.59;4905975;28;103909;-53
2022/11/07 06:37:47;;;;;;;68.40;64.50;;;;;;;14.31;68.86;101984.84;4902691;28;102256;-53
2022/11/07 06:40:14;;;;;;;68.10;64.30;;;;;;;14.32;68.73;101980.22;4901995;28;102176;-53
2022/11/07 06:42:41;;;;;;;62.45;58.85;;;;;;;14.33;68.70;101979.13;4896223;28;102163;-53
2022/11/07 06:45:08;;;;;;;65.13;61.42;;;;;;;14.33;68.41;101969.00;4895623;28;104194;-53
2022/11/07 06:47:35;;;;;;;64.20;60.38;;;;;;;14.32;68.74;101978.31;4896308;28;102214;-53
2022/11/07 06:50:01;;;;;;;63.30;59.60;;;;;;;14.32;68.76;101977.47;4905026;28;102426;-53
2022/11/07 06:52:28;;;;;;;63.05;59.38;;;;;;;14.32;68.34;101967.34;4909089;28;102795;-53
2022/11/07 06:54:56;;;;;;;67.60;63.70;;;;;;;14.33;68.80;101970.91;4899582;28;104212;-53
2022/11/07 06:57:22;;;;;;;67.22;63.40;;;;;;;14.33;68.69;101962.69;4916944;28;103452;-53
2022/11/07 06:59:49;;;;;;;64.65;61.03;;;;;;;14.35;68.30;101960.50;4906441;28;102412;-53
2022/11/07 07:02:18;;;;;;;60.47;57.00;;;;;;;14.34;68.57;101964.34;4914124;28;102184;-53
2022/11/07 07:04:46;;;;;;;68.90;64.97;;;;;;;14.32;68.63;101956.41;4907700;28;103966;-53
2022/11/07 07:07:12;;;;;;;63.92;60.25;;;;;;;14.34;68.47;101958.84;4904612;28;102865;-53
2022/11/07 07:09:40;;;;;;;59.35;55.83;;;;;;;14.33;68.55;101958.03;4900990;28;102525;-53
2022/11/07 07:12:09;;;;;;;62.63;59.13;;;;;;;14.32;68.71;101958.31;4903521;28;102721;-53
2022/11/07 07:14:35;;;;;;;;;;;;;;;14.31;68.49;101959.38;4903374;28;103418;-53
2022/11/07 07:17:01;;;;;;;61.80;58.28;;;;;;;14.32;68.99;101950.09;4910840;28;102273;-53
2022/11/07 07:19:28;;;;;;;69.88;66.00;;;;;;;14.33;68.47;101954.47;4901240;28;102080;-53
2022/11/07 07:21:54;;;;;;;67.45;63.53;;;;;;;14.34;68.60;101953.38;4911145;28;102485;-53
2022/11/07 07:24:21;;;;;;;60.20;56.90;;;;;;;14.34;68.56;101953.38;4903080;28;103874;-53
2022/11/07 07:26:48;;;;;;;59.97;56.53;;;;;;;14.32;68.59;101950.09;4904581;28;102683;-53
2022/11/07 07:29:15;;;;;;;60.58;57.20;;;;;;;14.33;68.49;101951.75;4909807;28;102018;-54
2022/11/07 07:31:42;;;;;;;60.53;57.03;;;;;;;14.30;68.67;101953.09;4905087;28;103345;-59
2022/11/07 07:34:08;;;;;;;62.30;58.78;;;;;;;14.30;68.71;101946.78;4907138;28;103904;-53
2022/11/07 07:36:35;;;;;;;63.63;60.00;;;;;;;14.30;68.72;101946.78;4908455;28;102570;-53
2022/11/07 07:39:01;;;;;;;64.32;60.75;;;;;;;14.29;68.74;101945.16;4902465;28;103111;-53
2022/11/07 07:41:28;;;;;;;61.42;57.92;;;;;;;14.28;68.65;101954.44;4900872;28;102550;-53
2022/11/07 07:43:54;;;;;;;61.47;58.08;;;;;;;14.28;69.00;101943.47;4906271;28;104056;-53
2022/11/07 07:46:22;;;;;;;63.00;59.50;;;;;;;14.27;68.95;101947.31;4903520;28;102417;-52
2022/11/07 07:48:49;;;;;;;64.83;61.30;;;;;;;14.27;68.81;101944.56;4906405;28;102368;-52
2022/11/07 07:51:15;;;;;;;60.47;57.00;;;;;;;14.28;68.52;101946.22;4910294;28;102197;-52
2022/11/07 07:53:42;;;;;;;63.10;59.65;;;;;;;14.30;68.63;101941.31;4901508;28;103366;-52
2022/11/07 07:56:08;;;;;;;61.95;58.55;;;;;;;14.29;68.75;101945.97;4909141;28;102116;-53
2022/11/07 07:58:35;;;;;;;62.50;58.88;;;;;;;14.31;68.42;101949.25;4903187;28;101929;-52
2022/11/07 08:01:08;;;;;;;60.67;57.35;;;;;;;14.32;68.46;101944.63;4920422;28;102185;-52
2022/11/07 08:03:37;;;;;;;64.82;61.28;;;;;;;14.32;68.64;101950.09;4912446;28;104005;-52
2022/11/07 08:06:04;;;;;;;61.83;58.42;;;;;;;14.32;68.83;101955.56;4906180;28;102053;-52
2022/11/07 08:08:31;;;;;;;59.33;55.75;;;;;;;14.32;68.49;101950.91;4905340;28;101964;-52
2022/11/07 08:11:00;;;;;;;61.35;57.95;;;;;;;14.31;68.34;101948.44;4913907;28;102337;-52
2022/11/07 08:13:28;;;;;;;60.20;56.67;;;;;;;14.31;68.62;101949.25;4916350;28;104431;-52
2022/11/07 08:15:54;;;;;;;63.67;60.22;;;;;;;14.33;68.66;101952.56;4913616;28;102296;-52
2022/11/07 08:18:22;;;;;;;63.00;59.60;;;;;;;14.33;68.35;101958.03;4901262;28;102423;-52
2022/11/07 08:20:54;;;;;;;62.75;59.35;;;;;;;14.29;68.61;101956.94;4922613;28;102284;-52
2022/11/07 08:23:22;;;;;;;63.17;59.70;;;;;;;14.31;68.64;101957.47;4904542;28;108053;-53
2022/11/07 08:25:50;;;;;;;62.72;59.25;;;;;;;14.31;68.43;101943.78;4909506;28;102145;-53
2022/11/07 08:28:18;;;;;;;63.73;60.23;;;;;;;14.33;68.25;101965.44;4901337;28;101894;-52
2022/11/07 08:30:45;;;;;;;63.55;60.10;;;;;;;14.33;68.06;101957.22;4913035;28;102783;-53
2022/11/07 08:33:11;;;;;;;59.50;56.20;;;;;;;14.32;68.38;101961.06;4915516;28;103937;-52
2022/11/07 08:35:38;;;;;;;65.55;61.95;;;;;;;14.30;68.42;101958.56;4920960;28;102216;-52
2022/11/07 08:38:06;;;;;;;58.75;55.47;;;;;;;14.27;68.35;101948.13;4907868;28;102624;-52
2022/11/07 08:40:33;;;;;;;60.67;57.33;;;;;;;14.29;68.34;101950.63;4915119;28;102205;-52
2022/11/07 08:42:59;;;;;;;61.78;58.35;;;;;;;14.28;68.71;101941.59;4912975;28;103929;-52
2022/11/07 08:45:26;;;;;;;61.13;57.72;;;;;;;14.28;68.44;101944.31;4905430;28;102474;-52
2022/11/07 08:47:56;;;;;;;61.17;57.78;;;;;;;14.28;68.06;101940.75;4905987;28;102300;-52
2022/11/07 08:50:22;;;;;;;59.38;55.97;;;;;;;14.28;68.29;101940.75;4914141;28;102258;-52
2022/11/07 08:52:48;;;;;;;56.97;53.90;;;;;;;14.27;68.30;101937.19;4914465;28;103849;-52
2022/11/07 08:55:16;;;;;;;56.55;53.38;;;;;;;14.26;68.30;101941.03;4901404;28;102252;-52
2022/11/07 08:57:43;;;;;;;60.78;57.42;;;;;;;14.27;68.09;101941.84;4901599;28;102595;-52
2022/11/07 09:00:10;;;;;;;62.58;59.17;;;;;;;14.29;68.29;101947.88;4908868;28;102158;-52
2022/11/07 09:02:37;;;;;;;62.65;59.20;;;;;;;14.29;68.31;101940.50;4910231;28;103913;-52
2022/11/07 09:05:04;;;;;;;61.30;58.00;;;;;;;14.30;68.14;101946.78;4906098;28;103044;-52
2022/11/07 09:07:31;;;;;;;58.35;55.15;;;;;;;14.31;67.91;101942.94;4906944;28;102276;-52
2022/11/07 09:09:57;;;;;;;58.95;55.75;;;;;;;14.33;68.08;101936.13;4905447;28;102445;-52
2022/11/07 09:12:25;;;;;;;59.20;56.00;;;;;;;14.32;68.48;101939.16;4905406;28;103905;-52
2022/11/07 09:14:52;;;;;;;55.35;52.33;;;;;;;14.30;68.15;101938.56;4906445;28;101967;-52
2022/11/07 09:17:18;;;;;;;59.38;56.00;;;;;;;14.29;68.49;101934.19;4909522;28;102059;-53
2022/11/07 09:19:45;;;;;;;58.90;55.72;;;;;;;14.29;68.54;101934.19;4902613;28;102638;-52
2022/11/07 09:22:11;;;;;;;57.17;54.13;;;;;;;14.30;67.84;101935.84;4909332;28;103872;-52
2022/11/07 09:24:39;;;;;;;58.70;55.40;;;;;;;14.30;68.50;101931.19;4904041;28;102284;-52
2022/11/07 09:27:06;;;;;;;58.85;55.70;;;;;;;14.32;68.10;101930.94;4897379;28;102453;-52
2022/11/07 09:29:36;;;;;;;56.65;53.60;;;;;;;14.30;68.46;101935.84;4917527;28;102146;-52
2022/11/07 09:32:03;;;;;;;60.00;56.80;;;;;;;14.32;67.96;101934.50;4922764;28;103864;-52
2022/11/07 09:34:29;;;;;;;55.30;52.30;;;;;;;14.32;68.37;101926.28;4910633;28;102332;-52
2022/11/07 09:36:58;;;;;;;59.45;56.35;;;;;;;14.31;68.14;101932.00;4901728;28;102197;-52
2022/11/07 09:39:24;;;;;;;57.67;54.60;;;;;;;14.30;68.04;101935.84;4912863;28;102329;-52
2022/11/07 09:41:57;;;;;;;57.50;54.30;;;;;;;14.33;68.25;101935.31;4910880;28;103791;-52
2022/11/07 09:44:40;;;;;;;59.65;56.40;;;;;;;14.32;68.23;101928.19;4915145;28;101997;-52
2022/11/07 09:47:18;;;;;;;60.40;57.05;;;;;;;14.30;68.41;101930.34;4904744;28;102716;-53
2022/11/07 09:49:47;;;;;;;60.42;57.20;;;;;;;14.30;67.85;101924.88;4909614;28;102355;-53
2022/11/07 09:52:18;;;;;;;66.00;62.50;;;;;;;14.32;68.29;101929.00;4915580;28;104010;-52
2022/11/07 09:54:51;;;;;;;61.20;57.95;;;;;;;14.31;68.26;101932.00;4925651;22;102642;-52
2022/11/07 09:57:19;;;;;;;55.90;52.90;;;;;;;14.29;68.26;101928.72;4946622;28;102591;-53
2022/11/07 09:59:51;;;;;;;57.33;54.22;;;;;;;14.28;68.51;101922.41;4968148;28;102523;-53
2022/11/07 10:02:22;;;;;;;56.00;52.90;;;;;;;14.30;68.15;101924.88;4918449;28;103892;-53
2022/11/07 10:04:54;;;;;;;57.25;54.20;;;;;;;14.30;68.39;101913.94;4918574;28;102497;-53
2022/11/07 10:07:34;;;;;;;66.35;62.70;;;;;;;14.32;68.50;101917.25;4923077;28;102776;-53
2022/11/07 10:10:08;;;;;;;61.53;58.40;;;;;;;14.30;68.19;101913.94;4921077;28;102871;-53
2022/11/07 10:13:01;;;;;;;61.38;58.15;;;;;;;14.31;68.25;101907.34;4919385;28;104449;-53
2022/11/07 10:15:46;;;;;;;57.92;54.83;;;;;;;14.31;68.42;101910.09;4918771;28;102599;-53
2022/11/07 10:18:22;;;;;;;57.95;54.70;;;;;;;14.33;68.43;101905.19;4919174;28;102555;-53
2022/11/07 10:20:54;;;;;;;57.78;54.65;;;;;;;14.32;68.54;101906.28;4921692;28;102497;-53
2022/11/07 10:23:38;;;;;;;59.38;56.25;;;;;;;14.34;68.43;101904.09;4917686;28;104035;-53
2022/11/07 10:26:09;;;;;;;63.55;60.20;;;;;;;14.34;68.35;101904.91;4919513;28;102141;-53
2022/11/07 10:28:44;;;;;;;59.53;56.30;;;;;;;14.36;68.16;101904.66;4919092;28;103049;-53
2022/11/07 10:31:13;;;;;;;60.03;56.72;;;;;;;14.33;68.29;101908.75;4922176;28;102358;-53
2022/11/07 10:33:48;;;;;;;55.88;52.67;;;;;;;14.33;68.34;101902.44;4919172;28;104247;-53
2022/11/07 10:36:22;;;;;;;60.28;56.83;;;;;;;14.35;68.08;101900.25;4920272;28;103452;-54
2022/11/07 10:38:50;;;;;;;54.20;51.30;;;;;;;14.35;68.59;101905.72;4919817;28;102177;-53
2022/11/07 10:41:20;;;;;;;56.97;53.97;;;;;;;14.34;68.40;101902.16;4923242;28;103035;-53
2022/11/07 10:43:51;;;;;;;56.40;53.30;;;;;;;14.35;68.36;101894.78;4920239;28;104925;-53
2022/11/07 10:46:23;;;;;;;57.90;54.83;;;;;;;14.34;68.24;101899.44;4919852;28;102271;-53
2022/11/07 10:48:55;;;;;;;60.08;56.67;;;;;;;14.35;68.52;101886.56;4919033;28;102459;-53
2022/11/07 10:51:35;;;;;;;57.60;54.47;;;;;;;14.35;68.55;101883.81;4921727;28;104535;-54
2022/11/07 10:54:03;;;;;;;56.20;53.13;;;;;;;14.34;68.10;101882.19;4919181;28;104045;-53
2022/11/07 10:56:30;;;;;;;58.28;55.05;;;;;;;14.34;68.45;101876.69;4922685;28;102770;-53
2022/11/07 10:58:57;;;;;;;61.97;58.67;;;;;;;14.33;68.24;101881.34;4920348;28;102333;-53
2022/11/07 11:01:26;;;;;;;57.47;54.42;;;;;;;14.33;68.71;101883.28;4920519;28;102930;-53
2022/11/07 11:03:53;;;;;;;55.20;52.22;;;;;;;14.33;68.53;101886.00;4922672;28;103952;-53
2022/11/07 11:06:23;;;;;;;57.95;54.85;;;;;;;14.32;68.21;101885.19;4921378;28;102777;-53
2022/11/07 11:08:51;;;;;;;59.03;55.55;;;;;;;14.33;68.69;101891.50;4921418;28;102898;-52
2022/11/07 11:11:26;;;;;;;58.20;55.00;;;;;;;14.33;68.26;101881.34;4922205;28;102873;-52
2022/11/07 11:14:01;;;;;;;64.07;60.50;;;;;;;14.35;68.53;101881.06;4920073;28;104011;-53
2022/11/07 11:16:33;;;;;;;61.05;57.75;;;;;;;14.34;68.54;101876.69;4923389;28;102113;-53
2022/11/07 11:19:15;;;;;;;62.17;58.85;;;;;;;14.34;68.52;101868.47;4922524;28;102025;-53